Terminal Aerodrome Forecast
Issued by NWS

Home | Current Version | Previous Version | Text Only | Print | Product List | Glossary On
Versions: 1 2 3 4 5 6 7 8 9 10 11 12 13 14 15 16 17 18 19 20 21 22 23 24
000
FTUS43 KMQT 262320
TAFSAW
TAF
KSAW 262320Z 2700/2724 21004KT P6SM SCT045
     FM270700 21004KT 2SM BR BKN010
     FM271000 23003KT 1SM BR OVC003
     FM271400 12003KT P6SM BKN100
     FM272100 13004KT P6SM -SHRA OVC070
     FM272300 11005KT P6SM -SHRA OVC035=

USA.gov is the U.S. government's official web portal to all federal, state and local government web resources and services.